Terminal Aerodrome Forecast
Issued by NWS

Home | Current Version | Previous Version | Text Only | Print | Product List | Glossary On
Versions: 1 2 3 4 5 6 7 8 9 10 11 12 13 14 15 16 17 18 19 20 21
245
FTUS43 KDVN 272352
TAFBRL
TAF
KBRL 272352Z 2800/2824 15008KT P6SM BKN100
     FM281100 16011KT 5SM -SHRA VCTS OVC015CB
     FM281400 18010KT 3SM -RADZ BR OVC008
     FM282000 22012KT 4SM -SHRA BR VCTS OVC015CB=

USA.gov is the U.S. government's official web portal to all federal, state and local government web resources and services.